createdAt,value
2018-08-19T00:02:23.243Z,101668.08
2018-08-19T00:05:06.017Z,101674.61
2018-08-19T00:07:35.191Z,101674.44
2018-08-19T00:10:04.202Z,101666.13
2018-08-19T00:12:39.530Z,101677.31
2018-08-19T00:15:08.143Z,101666.05
2018-08-19T00:17:36.631Z,101670.86
2018-08-19T00:20:07.863Z,101670.03
2018-08-19T00:22:36.368Z,101671.16
2018-08-19T00:25:05.630Z,101666.25
2018-08-19T00:27:37.203Z,101669.58
2018-08-19T00:30:08.273Z,101667.60
2018-08-19T00:32:36.772Z,101664.02
2018-08-19T00:35:05.883Z,101665.39
2018-08-19T00:37:34.720Z,101662.33
2018-08-19T00:40:10.301Z,101660.36
2018-08-19T00:42:38.899Z,101660.48
2018-08-19T00:45:07.955Z,101666.21
2018-08-19T00:47:36.637Z,101676.08
2018-08-19T00:50:05.579Z,101671.94
2018-08-19T00:52:34.892Z,101673.14
2018-08-19T00:55:03.724Z,101676.34
2018-08-19T00:57:32.865Z,101671.47
2018-08-19T01:00:01.640Z,101671.23
2018-08-19T01:02:30.571Z,101673.05
2018-08-19T01:04:59.076Z,101661.64
2018-08-19T01:07:28.092Z,101664.55
2018-08-19T01:09:56.796Z,101669.65
2018-08-19T01:12:25.630Z,101662.06
2018-08-19T01:14:54.240Z,101670.23
2018-08-19T01:17:27.378Z,101666.20
2018-08-19T01:20:00.003Z,101664.00
2018-08-19T01:22:29.041Z,101662.23
2018-08-19T01:25:56.796Z,101667.77
2018-08-19T01:28:25.416Z,101669.44
2018-08-19T01:30:54.328Z,101676.70
2018-08-19T01:33:23.047Z,101677.81
2018-08-19T01:35:51.761Z,101682.38
2018-08-19T01:38:20.621Z,101683.42
2018-08-19T01:40:49.324Z,101679.90
2018-08-19T01:43:17.992Z,101678.25
2018-08-19T01:45:46.508Z,101681.75
2018-08-19T01:48:15.347Z,101675.57
2018-08-19T01:50:43.864Z,101678.89
2018-08-19T01:53:12.488Z,101677.00
2018-08-19T01:55:41.122Z,101676.27
2018-08-19T01:58:09.908Z,101677.22
2018-08-19T02:00:38.648Z,101677.90
2018-08-19T02:03:07.480Z,101676.10
2018-08-19T02:05:36.583Z,101684.33
2018-08-19T02:08:05.903Z,101674.91
2018-08-19T02:10:35.101Z,101677.66
2018-08-19T02:13:03.763Z,101677.86
2018-08-19T02:15:32.995Z,101679.58
2018-08-19T02:18:02.896Z,101678.59
2018-08-19T02:20:38.603Z,101681.05
2018-08-19T02:23:08.883Z,101680.80
2018-08-19T02:25:43.844Z,101682.53
2018-08-19T02:29:28.040Z,101677.64
2018-08-19T02:31:59.518Z,101666.77
2018-08-19T02:34:31.705Z,101669.16
2018-08-19T02:37:07.323Z,101667.19
2018-08-19T02:39:38.098Z,101664.37
2018-08-19T02:42:17.474Z,101661.94
2018-08-19T02:44:46.305Z,101669.08
2018-08-19T02:47:14.832Z,101666.86
2018-08-19T02:49:43.673Z,101658.50
2018-08-19T02:52:39.338Z,101656.64
2018-08-19T02:55:08.643Z,101659.61
2018-08-19T02:57:40.045Z,101661.69
2018-08-19T03:00:11.048Z,101663.47
2018-08-19T03:02:41.064Z,101661.02
2018-08-19T03:05:14.656Z,101661.41
2018-08-19T03:07:44.555Z,101663.90
2018-08-19T03:10:14.737Z,101665.77
2018-08-19T03:12:43.970Z,101664.88
2018-08-19T03:15:13.639Z,101659.20
2018-08-19T03:17:43.044Z,101660.63
2018-08-19T03:20:13.576Z,101660.75
2018-08-19T03:22:42.432Z,101656.95
2018-08-19T03:25:11.533Z,101660.94
2018-08-19T03:27:40.144Z,101667.80
2018-08-19T03:30:12.207Z,101662.68
2018-08-19T03:32:46.568Z,101664.69
2018-08-19T03:35:18.493Z,101657.84
2018-08-19T03:37:48.042Z,101653.63
2018-08-19T03:40:16.620Z,101657.09
2018-08-19T03:42:45.702Z,101657.30
2018-08-19T03:45:18.654Z,101663.17
2018-08-19T03:47:47.944Z,101658.95
2018-08-19T03:50:26.906Z,101663.42
2018-08-19T03:52:56.731Z,101669.59
2018-08-19T03:55:29.355Z,101664.16
2018-08-19T03:58:09.080Z,101662.09
2018-08-19T04:03:39.800Z,101666.69
2018-08-19T04:06:08.325Z,101675.94
2018-08-19T04:08:47.341Z,101675.69
2018-08-19T04:11:15.945Z,101686.06
2018-08-19T04:13:44.412Z,101685.70
2018-08-19T04:16:13.334Z,101685.64
2018-08-19T04:18:43.928Z,101689.25
2018-08-19T04:21:13.789Z,101682.61
2018-08-19T04:23:44.844Z,101682.55
2018-08-19T04:26:13.417Z,101688.22
2018-08-19T04:28:43.515Z,101686.84
2018-08-19T04:31:17.166Z,101689.51
2018-08-19T04:33:47.196Z,101696.14
2018-08-19T04:36:17.377Z,101690.28
2018-08-19T04:38:45.967Z,101700.63
2018-08-19T04:41:21.328Z,101699.32
2018-08-19T04:43:50.378Z,101696.12
2018-08-19T04:46:19.097Z,101696.23
2018-08-19T04:48:48.571Z,101698.13
2018-08-19T04:51:17.088Z,101707.22
2018-08-19T04:53:45.884Z,101705.06
2018-08-19T04:56:14.488Z,101705.38
2018-08-19T04:58:42.975Z,101703.41
2018-08-19T05:01:13.525Z,101706.78
2018-08-19T05:03:44.325Z,101708.55
2018-08-19T05:06:12.930Z,101709.01
2018-08-19T05:08:41.479Z,101708.22
2018-08-19T05:11:10.031Z,101709.14
2018-08-19T05:13:38.672Z,101709.06
2018-08-19T05:16:07.400Z,101708.70
2018-08-19T05:18:36.014Z,101712.45
2018-08-19T05:21:10.092Z,101714.25
2018-08-19T05:23:38.912Z,101713.20
2018-08-19T05:26:07.472Z,101708.70
2018-08-19T05:28:35.999Z,101710.24
2018-08-19T05:31:04.829Z,101707.41
2018-08-19T05:33:33.709Z,101712.02
2018-08-19T05:36:02.628Z,101701.63
2018-08-19T05:38:32.401Z,101708.81
2018-08-19T05:41:02.024Z,101703.70
2018-08-19T05:43:31.379Z,101705.03
2018-08-19T05:46:01.058Z,101710.89
2018-08-19T05:48:30.136Z,101710.72
2018-08-19T05:51:02.161Z,101700.45
2018-08-19T05:53:30.697Z,101705.20
2018-08-19T05:55:59.471Z,101705.45
2018-08-19T05:58:28.142Z,101709.45
2018-08-19T06:01:01.289Z,101707.38
2018-08-19T06:03:34.598Z,101710.12
2018-08-19T06:06:03.476Z,101711.40
2018-08-19T06:08:32.488Z,101712.88
2018-08-19T06:11:01.314Z,101720.37
2018-08-19T06:13:30.148Z,101713.20
2018-08-19T06:15:59.041Z,101714.63
2018-08-19T06:18:27.652Z,101711.70
2018-08-19T06:20:56.944Z,101714.31
2018-08-19T06:23:25.645Z,101712.44
2018-08-19T06:25:54.219Z,101717.83
2018-08-19T06:28:24.365Z,101721.27
2018-08-19T06:31:55.723Z,101716.53
2018-08-19T06:34:24.756Z,101725.92
2018-08-19T06:36:53.350Z,101722.36
2018-08-19T06:39:22.375Z,101722.03
2018-08-19T06:41:51.234Z,101721.31
2018-08-19T06:44:20.056Z,101718.84
2018-08-19T06:46:49.128Z,101720.34
2018-08-19T06:49:20.312Z,101717.29
2018-08-19T06:51:49.813Z,101718.95
2018-08-19T06:54:18.463Z,101715.51
2018-08-19T06:56:47.363Z,101709.62
2018-08-19T06:59:17.419Z,101707.50
2018-08-19T07:01:46.516Z,101706.70
2018-08-19T07:04:15.950Z,101709.93
2018-08-19T07:06:44.902Z,101714.05
2018-08-19T07:09:13.440Z,101710.45
2018-08-19T07:11:58.046Z,101713.27
2018-08-19T07:14:28.310Z,101707.63
2018-08-19T07:16:57.257Z,101714.78
2018-08-19T07:19:26.136Z,101717.97
2018-08-19T07:22:00.144Z,101718.33
2018-08-19T07:24:30.670Z,101715.94
2018-08-19T07:26:59.488Z,101712.58
2018-08-19T07:29:29.696Z,101716.78
2018-08-19T07:31:58.659Z,101715.98
2018-08-19T07:34:29.025Z,101720.89
2018-08-19T07:36:58.984Z,101713.44
2018-08-19T07:39:28.787Z,101713.08
2018-08-19T07:41:59.816Z,101718.20
2018-08-19T07:44:28.483Z,101710.41
2018-08-19T07:46:57.387Z,101710.65
2018-08-19T07:49:28.571Z,101710.41
2018-08-19T07:51:58.392Z,101709.38
2018-08-19T07:54:29.018Z,101706.45
2018-08-19T07:56:58.428Z,101708.66
2018-08-19T07:59:34.900Z,101705.28
2018-08-19T08:02:04.469Z,101702.31
2018-08-19T08:04:39.444Z,101701.65
2018-08-19T08:07:09.529Z,101700.97
2018-08-19T08:09:39.112Z,101706.33
2018-08-19T08:12:09.785Z,101705.30
2018-08-19T08:14:39.633Z,101708.36
2018-08-19T08:17:09.988Z,101700.47
2018-08-19T08:19:41.738Z,101695.00
2018-08-19T08:22:17.353Z,101700.72
2018-08-19T08:24:45.885Z,101695.72
2018-08-19T08:27:16.164Z,101694.70
2018-08-19T08:29:45.706Z,101694.42
2018-08-19T08:32:14.672Z,101692.59
2018-08-19T08:34:43.869Z,101693.61
2018-08-19T08:37:13.445Z,101687.46
2018-08-19T08:39:42.672Z,101691.22
2018-08-19T08:42:20.127Z,101689.11
2018-08-19T08:44:49.168Z,101689.67
2018-08-19T08:47:19.113Z,101693.60
2018-08-19T08:49:48.248Z,101687.12
2018-08-19T08:52:24.377Z,101684.87
2018-08-19T08:54:54.571Z,101683.20
2018-08-19T08:57:24.513Z,101680.47
2018-08-19T08:59:54.161Z,101682.14
2018-08-19T09:02:23.289Z,101681.28
2018-08-19T09:04:53.871Z,101678.70
2018-08-19T09:07:30.904Z,101678.98
2018-08-19T09:09:59.529Z,101678.48
2018-08-19T09:12:39.527Z,101680.25
2018-08-19T09:15:09.529Z,101675.98
2018-08-19T09:17:38.841Z,101667.09
2018-08-19T09:20:09.591Z,101673.88
2018-08-19T09:22:40.521Z,101668.94
2018-08-19T09:25:11.393Z,101670.41
2018-08-19T09:27:40.868Z,101668.91
2018-08-19T09:30:14.127Z,101666.06
2018-08-19T09:32:56.880Z,101661.91
2018-08-19T09:35:29.541Z,101663.86
2018-08-19T09:38:04.844Z,101660.00
2018-08-19T09:40:35.501Z,101658.27
2018-08-19T09:43:06.572Z,101651.98
2018-08-19T09:45:36.380Z,101649.67
2018-08-19T09:48:06.692Z,101646.20
2018-08-19T09:50:36.732Z,101651.78
2018-08-19T09:53:05.641Z,101642.86
2018-08-19T09:55:44.135Z,101645.66
2018-08-19T09:58:17.180Z,101641.46
2018-08-19T10:00:52.775Z,101639.87
2018-08-19T10:03:24.197Z,101637.83
2018-08-19T10:05:53.222Z,101626.78
2018-08-19T10:08:23.824Z,101633.93
2018-08-19T10:10:52.888Z,101629.72
2018-08-19T10:13:22.302Z,101624.22
2018-08-19T10:15:53.072Z,101622.15
2018-08-19T10:18:22.693Z,101619.08
2018-08-19T10:20:52.705Z,101621.61
2018-08-19T10:23:25.549Z,101615.93
2018-08-19T10:25:54.795Z,101603.19
2018-08-19T10:28:23.431Z,101605.03
2018-08-19T10:30:57.025Z,101602.56
2018-08-19T10:33:26.269Z,101605.17
2018-08-19T10:35:58.033Z,101601.03
2018-08-19T10:38:26.812Z,101599.19
2018-08-19T10:41:03.597Z,101596.19
2018-08-19T10:43:33.393Z,101591.58
2018-08-19T10:46:03.052Z,101587.17
2018-08-19T10:48:32.440Z,101586.24
2018-08-19T10:51:04.083Z,101582.90
2018-08-19T10:53:32.588Z,101583.77
2018-08-19T10:56:02.812Z,101572.97
2018-08-19T10:58:31.977Z,101565.08
2018-08-19T11:01:02.572Z,101565.63
2018-08-19T11:03:32.335Z,101561.53
2018-08-19T11:06:01.419Z,101558.17
2018-08-19T11:08:30.483Z,101553.84
2018-08-19T11:11:00.372Z,101556.36
2018-08-19T11:13:31.707Z,101552.64
2018-08-19T11:16:02.366Z,101545.87
2018-08-19T11:18:43.952Z,101542.25
2018-08-19T11:21:18.907Z,101541.30
2018-08-19T11:23:50.021Z,101536.14
2018-08-19T11:26:18.681Z,101540.64
2018-08-19T11:28:50.663Z,101540.52
2018-08-19T11:31:26.326Z,101539.46
2018-08-19T11:33:57.495Z,101528.37
2018-08-19T11:36:32.461Z,101533.15
2018-08-19T11:39:01.196Z,101532.08
2018-08-19T11:41:32.417Z,101526.28
2018-08-19T11:44:05.567Z,101510.70
2018-08-19T11:46:34.159Z,101518.34
2018-08-19T11:49:08.449Z,101520.56
2018-08-19T11:51:58.841Z,101517.71
2018-08-19T11:54:28.732Z,101511.91
2018-08-19T11:57:03.798Z,101508.34
2018-08-19T11:59:36.383Z,101509.34
2018-08-19T12:02:06.762Z,101509.69
2018-08-19T12:04:35.572Z,101511.06
2018-08-19T12:07:04.612Z,101503.61
2018-08-19T12:09:33.381Z,101501.62
2018-08-19T12:12:03.033Z,101494.09
2018-08-19T12:14:35.138Z,101488.92
2018-08-19T12:17:07.700Z,101492.17
2018-08-19T12:19:39.013Z,101484.33
2018-08-19T12:22:08.323Z,101473.72
2018-08-19T12:24:42.977Z,101477.63
2018-08-19T12:27:14.105Z,101473.50
2018-08-19T12:29:43.556Z,101465.98
2018-08-19T12:32:19.844Z,101460.78
2018-08-19T12:34:50.745Z,101457.20
2018-08-19T12:37:21.365Z,101447.52
2018-08-19T12:39:51.382Z,101444.09
2018-08-19T12:42:20.047Z,101450.95
2018-08-19T12:44:50.666Z,101445.34
2018-08-19T12:47:25.315Z,101436.88
2018-08-19T12:49:56.728Z,101433.91
2018-08-19T12:52:26.904Z,101431.92
2018-08-19T12:55:03.556Z,101425.48
2018-08-19T12:57:33.183Z,101424.84
2018-08-19T13:00:08.809Z,101420.48
2018-08-19T13:02:41.915Z,101424.67
2018-08-19T13:05:11.085Z,101413.37
2018-08-19T13:07:39.711Z,101411.62
2018-08-19T13:10:10.552Z,101407.13
2018-08-19T13:12:54.816Z,101408.70
2018-08-19T13:15:24.618Z,101421.69
2018-08-19T13:17:53.483Z,101425.72
2018-08-19T13:20:22.101Z,101410.05
2018-08-19T13:23:06.533Z,101415.70
2018-08-19T13:25:35.287Z,101405.44
2018-08-19T13:28:04.454Z,101396.37
2018-08-19T13:30:33.255Z,101389.63
2018-08-19T13:33:02.572Z,101391.48
2018-08-19T13:35:31.609Z,101378.05
2018-08-19T13:38:00.205Z,101374.27
2018-08-19T13:40:28.879Z,101368.95
2018-08-19T13:42:57.549Z,101364.30
2018-08-19T13:45:27.653Z,101361.33
2018-08-19T13:47:56.582Z,101363.41
2018-08-19T13:50:25.442Z,101361.25
2018-08-19T13:52:54.150Z,101352.78
2018-08-19T13:55:23.400Z,101352.68
2018-08-19T13:57:51.930Z,101347.83
2018-08-19T14:00:22.384Z,101338.19
2018-08-19T14:02:51.523Z,101331.53
2018-08-19T14:05:20.819Z,101334.11
2018-08-19T14:07:49.353Z,101327.95
2018-08-19T14:10:18.201Z,101325.58
2018-08-19T14:12:46.712Z,101315.73
2018-08-19T14:15:15.595Z,101318.30
2018-08-19T14:17:44.293Z,101315.78
2018-08-19T14:20:13.131Z,101313.15
2018-08-19T14:22:41.849Z,101305.47
2018-08-19T14:25:11.758Z,101304.78
2018-08-19T14:27:40.564Z,101301.41
2018-08-19T14:30:11.013Z,101293.70
2018-08-19T14:32:40.641Z,101289.27
2018-08-19T14:35:09.601Z,101286.45
2018-08-19T14:37:38.469Z,101286.20
2018-08-19T14:40:10.659Z,101280.70
2018-08-19T14:42:39.303Z,101277.88
2018-08-19T14:45:08.184Z,101275.14
2018-08-19T14:47:37.344Z,101276.05
2018-08-19T14:50:14.854Z,101271.18
2018-08-19T14:52:43.807Z,101269.69
2018-08-19T14:55:12.575Z,101270.04
2018-08-19T14:57:41.106Z,101263.50
2018-08-19T15:00:14.071Z,101262.09
2018-08-19T15:02:43.943Z,101258.77
2018-08-19T15:05:19.148Z,101257.59
2018-08-19T15:07:48.209Z,101252.43
2018-08-19T15:10:18.141Z,101251.10
2018-08-19T15:12:46.689Z,101244.01
2018-08-19T15:15:15.257Z,101249.18
2018-08-19T15:17:50.977Z,101245.33
2018-08-19T15:20:36.741Z,101239.47
2018-08-19T15:23:17.471Z,101232.02
2018-08-19T15:25:46.499Z,101230.75
2018-08-19T15:28:15.963Z,101227.51
2018-08-19T15:30:45.192Z,101230.37
2018-08-19T15:33:15.907Z,101230.30
2018-08-19T15:35:45.338Z,101230.58
2018-08-19T15:38:15.242Z,101226.28
2018-08-19T15:40:47.997Z,101219.38
2018-08-19T15:43:16.523Z,101216.05
2018-08-19T15:45:45.694Z,101213.55
2018-08-19T15:48:15.666Z,101220.08
2018-08-19T15:50:44.376Z,101219.58
2018-08-19T15:53:13.770Z,101214.19
2018-08-19T15:55:42.595Z,101217.09
2018-08-19T15:58:11.935Z,101212.67
2018-08-19T16:00:42.397Z,101219.87
2018-08-19T16:03:12.482Z,101208.92
2018-08-19T16:05:41.788Z,101209.80
2018-08-19T16:08:11.533Z,101210.77
2018-08-19T16:10:40.698Z,101207.53
2018-08-19T16:13:11.512Z,101212.05
2018-08-19T16:15:40.322Z,101208.80
2018-08-19T16:18:09.377Z,101202.53
2018-08-19T16:20:38.689Z,101204.22
2018-08-19T16:23:07.501Z,101203.23
2018-08-19T16:25:36.552Z,101194.16
2018-08-19T16:28:06.604Z,101193.56
2018-08-19T16:30:35.569Z,101192.80
2018-08-19T16:33:06.166Z,101188.81
2018-08-19T16:35:35.082Z,101181.55
2018-08-19T16:38:03.624Z,101178.93
2018-08-19T16:40:32.390Z,101181.75
2018-08-19T16:43:01.557Z,101176.91
2018-08-19T16:45:31.942Z,101179.13
2018-08-19T16:48:00.412Z,101177.75
2018-08-19T16:50:29.766Z,101175.52
2018-08-19T16:52:58.819Z,101169.48
2018-08-19T16:55:28.228Z,101170.68
2018-08-19T16:57:57.046Z,101168.86
2018-08-19T17:00:26.747Z,101170.27
2018-08-19T17:02:55.804Z,101175.25
2018-08-19T17:05:32.510Z,101169.16
2018-08-19T17:08:02.625Z,101170.39
2018-08-19T17:10:31.492Z,101167.12
2018-08-19T17:13:02.479Z,101175.30
2018-08-19T17:15:31.302Z,101169.67
2018-08-19T17:18:00.517Z,101170.99
2018-08-19T17:20:29.146Z,101169.36
2018-08-19T17:22:58.031Z,101174.17
2018-08-19T17:25:26.787Z,101175.53
2018-08-19T17:27:55.281Z,101167.20
2018-08-19T17:30:24.707Z,101172.83
2018-08-19T17:33:00.758Z,101169.54
2018-08-19T17:35:29.929Z,101173.02
2018-08-19T17:37:58.851Z,101169.52
2018-08-19T17:40:27.992Z,101168.17
2018-08-19T17:42:57.247Z,101167.13
2018-08-19T17:45:26.006Z,101168.94
2018-08-19T17:47:55.383Z,101171.25
2018-08-19T17:50:30.093Z,101166.89
2018-08-19T17:53:01.279Z,101162.95
2018-08-19T17:55:30.467Z,101168.36
2018-08-19T17:58:00.852Z,101164.80
2018-08-19T18:00:29.804Z,101164.73
2018-08-19T18:02:58.714Z,101167.25
2018-08-19T18:05:30.435Z,101173.20
2018-08-19T18:08:00.576Z,101162.47
2018-08-19T18:10:29.592Z,101163.14
2018-08-19T18:12:58.821Z,101166.13
2018-08-19T18:15:28.883Z,101169.55
2018-08-19T18:18:03.307Z,101160.97
2018-08-19T18:20:34.704Z,101167.22
2018-08-19T18:23:04.784Z,101166.55
2018-08-19T18:25:33.428Z,101168.91
2018-08-19T18:28:10.920Z,101173.22
2018-08-19T18:30:41.144Z,101168.63
2018-08-19T18:33:10.299Z,101175.33
2018-08-19T18:35:39.761Z,101168.74
2018-08-19T18:38:19.882Z,101172.59
2018-08-19T18:40:50.283Z,101168.64
2018-08-19T18:43:20.828Z,101161.43
2018-08-19T18:45:51.029Z,101170.75
2018-08-19T18:48:20.858Z,101168.67
2018-08-19T18:50:53.280Z,101176.36
2018-08-19T18:53:22.318Z,101166.33
2018-08-19T18:55:51.221Z,101168.97
2018-08-19T18:58:20.781Z,101166.97
2018-08-19T19:01:05.180Z,101167.68
2018-08-19T19:03:34.436Z,101168.32
2018-08-19T19:06:03.500Z,101167.97
2018-08-19T19:08:33.633Z,101166.58
2018-08-19T19:11:06.083Z,101167.48
2018-08-19T19:13:35.829Z,101168.86
2018-08-19T19:16:05.290Z,101171.97
2018-08-19T19:18:34.496Z,101169.26
2018-08-19T19:21:04.246Z,101167.67
2018-08-19T19:23:41.167Z,101167.05
2018-08-19T19:26:10.805Z,101161.77
2018-08-19T19:28:39.567Z,101161.22
2018-08-19T19:31:12.421Z,101164.25
2018-08-19T19:33:41.082Z,101172.92
2018-08-19T19:36:15.606Z,101168.03
2018-08-19T19:38:48.937Z,101166.11
2018-08-19T19:41:22.364Z,101163.47
2018-08-19T19:43:51.527Z,101157.58
2018-08-19T19:46:22.101Z,101157.17
2018-08-19T19:48:52.001Z,101148.52
2018-08-19T19:51:21.307Z,101150.02
2018-08-19T19:53:50.571Z,101146.92
2018-08-19T19:56:20.203Z,101147.14
2018-08-19T19:58:50.378Z,101141.80
